Time;durP1;ratioP1;P1;durP2;ratioP2;P2;SDS_P1;SDS_P2;PMS_P1;PMS_P2;Temp;Humidity;BMP_temperature;BMP_pressure;BME280_temperature;BME280_humidity;BME280_pressure;Samples;Min_cycle;Max_cycle;Signal;HPM_P1;HPM_P2
2022/01/18 00:01:42;;;;;;;34.15;15.65;;;;;;;;;;5028748;28;20025;-76
2022/01/18 00:04:08;;;;;;;36.47;16.65;;;;;;;;;;5029246;28;20026;-78
2022/01/18 00:06:33;;;;;;;36.63;16.85;;;;;;;;;;5028964;28;20108;-76
2022/01/18 00:08:58;;;;;;;32.17;14.95;;;;;;;;;;5029476;28;20033;-75
2022/01/18 00:11:27;;;;;;;36.92;15.75;;;;;;;;;;5029189;28;20025;-76
2022/01/18 00:14:02;;;;;;;31.58;15.27;;;;;;;;;;5029727;28;20039;-75
2022/01/18 00:16:49;;;;;;;34.78;16.45;;;;;;;;;;5029662;28;20410;-76
2022/01/18 00:19:14;;;;;;;32.28;15.38;;;;;;;;;;5030024;28;20418;-77
2022/01/18 00:24:14;;;;;;;33.05;14.77;;;;;;;;;;5030125;28;20464;-77
2022/01/18 00:26:39;;;;;;;33.97;15.70;;;;;;;;;;5029366;28;20057;-78
2022/01/18 00:29:11;;;;;;;33.80;16.27;;;;;;;;;;5029402;28;20053;-77
2022/01/18 00:31:48;;;;;;;33.05;16.60;;;;;;;;;;5029278;28;20026;-78
2022/01/18 00:34:51;;;;;;;32.72;15.60;;;;;;;;;;5030103;28;20053;-77
2022/01/18 00:39:36;;;;;;;32.95;16.00;;;;;;;;;;5033854;28;20036;-75
2022/01/18 00:42:02;;;;;;;35.03;15.93;;;;;;;;;;5035375;28;20053;-77
2022/01/18 00:44:27;;;;;;;34.63;15.50;;;;;;;;;;5033655;28;20026;-77
2022/01/18 00:46:53;;;;;;;35.88;16.25;;;;;;;;;;5032347;28;20035;-78
2022/01/18 00:49:18;;;;;;;35.35;15.82;;;;;;;;;;5032853;28;20037;-77
2022/01/18 00:51:51;;;;;;;36.22;17.27;;;;;;;;;;5032075;28;20033;-76
2022/01/18 00:54:22;;;;;;;34.03;15.98;;;;;;;;;;5033286;28;20045;-78
2022/01/18 00:56:51;;;;;;;37.28;16.48;;;;;;;;;;5032669;28;20025;-77
2022/01/18 00:59:16;;;;;;;34.00;15.25;;;;;;;;;;5032708;28;20029;-76
2022/01/18 01:01:41;;;;;;;37.90;16.08;;;;;;;;;;5032073;28;20079;-77
2022/01/18 01:04:07;;;;;;;36.38;15.68;;;;;;;;;;5032989;28;20112;-78
2022/01/18 01:06:33;;;;;;;31.23;15.70;;;;;;;;;;5031984;28;20021;-77
2022/01/18 01:08:59;;;;;;;34.92;16.27;;;;;;;;;;5032975;28;20100;-77
2022/01/18 01:11:25;;;;;;;30.35;15.55;;;;;;;;;;5031748;28;20602;-77
2022/01/18 01:13:53;;;;;;;34.53;15.70;;;;;;;;;;5032919;28;20026;-77
2022/01/18 01:34:49;;;;;;;31.10;15.23;;;;;;;;;;5032339;28;20068;-77
2022/01/18 01:45:10;;;;;;;31.35;16.13;;;;;;;;;;5032613;28;20055;-77
2022/01/18 01:47:37;;;;;;;29.45;14.73;;;;;;;;;;5032234;28;20026;-78
2022/01/18 01:50:07;;;;;;;33.38;14.68;;;;;;;;;;5031490;28;20025;-76
2022/01/18 01:52:32;;;;;;;30.95;14.23;;;;;;;;;;5031519;28;20111;-77
2022/01/18 01:54:58;;;;;;;33.65;14.90;;;;;;;;;;5032027;28;20076;-78
2022/01/18 01:57:24;;;;;;;28.15;14.60;;;;;;;;;;5031675;28;20025;-77
2022/01/18 01:59:49;;;;;;;33.05;14.05;;;;;;;;;;5032219;28;20033;-78
2022/01/18 02:02:15;;;;;;;38.83;16.25;;;;;;;;;;5031013;28;20028;-78
2022/01/18 02:04:41;;;;;;;32.72;15.48;;;;;;;;;;5031208;28;20468;-78
2022/01/18 02:07:07;;;;;;;34.42;15.55;;;;;;;;;;5031605;28;20087;-77
2022/01/18 02:09:32;;;;;;;35.40;16.20;;;;;;;;;;5031757;28;20280;-78
2022/01/18 02:12:00;;;;;;;31.13;15.82;;;;;;;;;;5031575;28;20476;-78
2022/01/18 02:14:26;;;;;;;32.35;14.73;;;;;;;;;;5031851;28;20463;-77
2022/01/18 02:22:20;;;;;;;30.92;15.00;;;;;;;;;;5031777;28;20037;-78
2022/01/18 02:24:46;;;;;;;34.42;14.65;;;;;;;;;;5031605;28;20025;-78
2022/01/18 02:27:12;;;;;;;30.45;14.38;;;;;;;;;;5031053;28;20065;-78
2022/01/18 02:29:38;;;;;;;27.90;13.95;;;;;;;;;;5031774;28;20025;-78
2022/01/18 02:32:04;;;;;;;29.85;14.23;;;;;;;;;;5031576;28;20151;-77
2022/01/18 02:34:29;;;;;;;27.92;13.77;;;;;;;;;;5030907;28;20037;-77
2022/01/18 02:36:57;;;;;;;30.27;14.07;;;;;;;;;;5031553;28;20113;-78
2022/01/18 02:39:27;;;;;;;26.75;13.30;;;;;;;;;;5031116;28;20423;-78
2022/01/18 02:42:05;;;;;;;30.55;13.40;;;;;;;;;;5031207;28;20037;-78
2022/01/18 02:44:32;;;;;;;32.63;14.73;;;;;;;;;;5030756;28;20044;-78
2022/01/18 02:46:59;;;;;;;29.08;13.60;;;;;;;;;;5031071;28;20052;-76
2022/01/18 02:49:25;;;;;;;33.40;14.52;;;;;;;;;;5030747;28;20030;-78
2022/01/18 02:51:51;;;;;;;35.38;13.85;;;;;;;;;;5031012;28;20041;-78
2022/01/18 02:54:17;;;;;;;28.17;13.90;;;;;;;;;;5031073;28;20021;-78
2022/01/18 02:56:48;;;;;;;37.70;14.70;;;;;;;;;;5030880;28;20074;-78
2022/01/18 02:59:23;;;;;;;31.83;14.90;;;;;;;;;;5030759;28;20160;-78
2022/01/18 03:04:38;;;;;;;28.73;13.40;;;;;;;;;;5030747;28;20031;-77
2022/01/18 03:07:04;;;;;;;32.10;14.27;;;;;;;;;;5030920;28;20029;-77
2022/01/18 03:09:30;;;;;;;29.88;12.98;;;;;;;;;;5030443;28;20033;-77
2022/01/18 03:11:55;;;;;;;30.58;14.77;;;;;;;;;;5031129;28;20112;-77
2022/01/18 03:14:20;;;;;;;33.25;15.63;;;;;;;;;;5029859;28;20407;-77
2022/01/18 03:16:46;;;;;;;27.08;14.02;;;;;;;;;;5031248;28;20295;-77
2022/01/18 03:19:11;;;;;;;32.53;15.68;;;;;;;;;;5030366;28;20036;-77
2022/01/18 03:21:36;;;;;;;33.83;15.02;;;;;;;;;;5030821;28;20386;-77
2022/01/18 03:24:31;;;;;;;26.85;13.77;;;;;;;;;;5028976;28;20535;-78
2022/01/18 03:29:41;;;;;;;38.78;17.65;;;;;;;;;;5030322;28;20487;-78
2022/01/18 03:32:07;;;;;;;33.90;16.40;;;;;;;;;;5031830;28;20099;-78
2022/01/18 03:34:33;;;;;;;30.38;13.68;;;;;;;;;;5028654;28;20557;-77
2022/01/18 03:36:58;;;;;;;32.13;14.30;;;;;;;;;;5031634;28;20311;-78
2022/01/18 03:39:24;;;;;;;31.50;14.18;;;;;;;;;;5030492;28;20033;-78
2022/01/18 03:41:54;;;;;;;27.35;13.18;;;;;;;;;;5030624;28;20029;-78
2022/01/18 03:44:25;;;;;;;29.17;13.02;;;;;;;;;;5030277;28;20476;-78
2022/01/18 03:46:53;;;;;;;28.33;13.27;;;;;;;;;;5031365;28;20112;-78
2022/01/18 03:49:19;;;;;;;27.15;12.70;;;;;;;;;;5029924;28;20061;-77
2022/01/18 03:51:45;;;;;;;23.70;12.93;;;;;;;;;;5030047;28;20080;-77
2022/01/18 03:54:13;;;;;;;28.40;14.00;;;;;;;;;;5029629;28;20571;-77
2022/01/18 03:56:38;;;;;;;29.95;13.82;;;;;;;;;;5030099;28;20047;-77
2022/01/18 03:59:03;;;;;;;28.85;14.18;;;;;;;;;;5028734;28;20475;-76
2022/01/18 04:01:29;;;;;;;31.35;13.90;;;;;;;;;;5030735;28;20033;-78
2022/01/18 04:03:54;;;;;;;28.50;13.95;;;;;;;;;;5029870;28;20029;-78
2022/01/18 04:06:19;;;;;;;32.33;13.38;;;;;;;;;;5030845;28;20079;-77
2022/01/18 04:08:44;;;;;;;31.95;15.13;;;;;;;;;;5030942;28;20028;-77
2022/01/18 04:11:10;;;;;;;30.45;15.00;;;;;;;;;;5031142;28;20033;-78
2022/01/18 04:13:35;;;;;;;31.73;15.02;;;;;;;;;;5033244;28;20246;-78
2022/01/18 04:16:00;;;;;;;28.48;14.85;;;;;;;;;;5034900;28;20437;-78
2022/01/18 04:18:50;;;;;;;31.23;14.75;;;;;;;;;;5034780;28;20052;-77
2022/01/18 04:29:09;;;;;;;31.48;14.52;;;;;;;;;;5013230;28;20022;-77
2022/01/18 04:31:35;;;;;;;30.45;15.43;;;;;;;;;;5013634;28;20033;-78
2022/01/18 04:34:01;;;;;;;32.45;15.00;;;;;;;;;;5013416;28;20113;-77
2022/01/18 04:36:28;;;;;;;31.48;15.18;;;;;;;;;;5013527;28;20087;-78
2022/01/18 04:38:54;;;;;;;31.90;14.93;;;;;;;;;;5013420;28;20030;-77
2022/01/18 04:41:25;;;;;;;28.55;13.95;;;;;;;;;;5024597;28;20029;-77
2022/01/18 04:44:13;;;;;;;42.72;20.38;;;;;;;;;;5032311;28;20039;-78
2022/01/18 04:49:22;;;;;;;32.08;15.95;;;;;;;;;;5032893;28;20037;-77
2022/01/18 04:51:48;;;;;;;34.08;15.68;;;;;;;;;;5033249;28;20017;-78
2022/01/18 04:54:15;;;;;;;28.88;13.90;;;;;;;;;;5033769;28;20029;-78
2022/01/18 04:59:09;;;;;;;30.70;13.55;;;;;;;;;;5033647;28;20025;-77
2022/01/18 05:01:36;;;;;;;35.97;15.63;;;;;;;;;;5033677;28;20025;-77
2022/01/18 05:04:01;;;;;;;30.60;14.38;;;;;;;;;;5033203;28;20063;-77
2022/01/18 05:06:26;;;;;;;31.42;15.38;;;;;;;;;;5031775;28;20033;-77
2022/01/18 05:08:52;;;;;;;28.58;13.93;;;;;;;;;;5034209;28;20033;-77
2022/01/18 05:11:20;;;;;;;30.23;14.10;;;;;;;;;;5033610;28;20116;-77
2022/01/18 05:14:05;;;;;;;28.48;13.68;;;;;;;;;;5033899;28;20026;-77
2022/01/18 05:19:15;;;;;;;25.58;12.93;;;;;;;;;;5033574;28;20025;-75
2022/01/18 05:24:21;;;;;;;30.05;13.23;;;;;;;;;;5031850;28;20021;-77
2022/01/18 05:26:47;;;;;;;23.45;12.98;;;;;;;;;;5032101;28;20032;-78
2022/01/18 05:29:12;;;;;;;33.53;13.73;;;;;;;;;;5033575;28;20044;-78
2022/01/18 05:31:38;;;;;;;26.70;13.68;;;;;;;;;;5033748;28;20387;-78
2022/01/18 05:34:03;;;;;;;29.67;14.40;;;;;;;;;;5033865;28;20459;-77
2022/01/18 05:36:29;;;;;;;34.30;14.82;;;;;;;;;;5032765;28;20033;-77
2022/01/18 05:38:54;;;;;;;27.65;13.95;;;;;;;;;;5033949;28;20029;-77
2022/01/18 05:41:19;;;;;;;29.48;14.20;;;;;;;;;;5032844;28;20035;-78
2022/01/18 05:43:45;;;;;;;32.28;14.43;;;;;;;;;;5033108;28;20124;-77
2022/01/18 05:46:11;;;;;;;32.33;14.02;;;;;;;;;;5031631;28;20025;-77
2022/01/18 05:48:36;;;;;;;32.92;14.00;;;;;;;;;;5031325;28;20022;-76
2022/01/18 05:51:02;;;;;;;33.33;15.60;;;;;;;;;;5030779;28;20456;-77
2022/01/18 05:53:30;;;;;;;30.48;14.38;;;;;;;;;;5031445;28;20124;-77
2022/01/18 05:55:57;;;;;;;35.15;14.73;;;;;;;;;;5030723;28;20026;-77
2022/01/18 05:58:22;;;;;;;33.50;14.63;;;;;;;;;;5031160;28;20029;-76
2022/01/18 06:00:53;;;;;;;29.70;14.25;;;;;;;;;;5030478;28;20110;-76
2022/01/18 06:03:27;;;;;;;31.80;13.80;;;;;;;;;;5029623;28;20045;-76
2022/01/18 06:08:57;;;;;;;32.25;14.80;;;;;;;;;;4990397;28;20474;-78
2022/01/18 06:11:22;;;;;;;34.13;16.13;;;;;;;;;;5021408;28;20125;-76
2022/01/18 06:13:47;;;;;;;35.42;14.85;;;;;;;;;;5031436;28;20021;-76
2022/01/18 06:16:13;;;;;;;28.30;13.80;;;;;;;;;;5030990;28;20384;-77
2022/01/18 06:18:38;;;;;;;33.22;15.43;;;;;;;;;;5033216;28;20043;-78
2022/01/18 06:21:03;;;;;;;35.63;18.48;;;;;;;;;;5030806;28;20091;-75
2022/01/18 06:23:29;;;;;;;33.55;16.50;;;;;;;;;;5025261;28;20510;-78
2022/01/18 06:25:54;;;;;;;30.45;14.30;;;;;;;;;;5017870;28;20048;-76
2022/01/18 06:28:19;;;;;;;31.77;15.13;;;;;;;;;;5029995;28;20026;-77
2022/01/18 06:30:45;;;;;;;33.28;16.13;;;;;;;;;;5025050;28;20026;-78
2022/01/18 06:33:10;;;;;;;31.75;15.55;;;;;;;;;;5031106;28;20030;-78
2022/01/18 06:35:35;;;;;;;31.27;15.82;;;;;;;;;;5030097;28;20476;-78
2022/01/18 06:38:01;;;;;;;37.60;17.58;;;;;;;;;;5031139;28;20033;-77
2022/01/18 06:40:26;;;;;;;34.60;13.98;;;;;;;;;;5030979;28;20033;-77
2022/01/18 06:42:52;;;;;;;30.88;15.27;;;;;;;;;;5030575;28;20036;-77
2022/01/18 06:45:18;;;;;;;38.25;16.88;;;;;;;;;;5029884;28;20029;-77
2022/01/18 06:47:44;;;;;;;30.27;16.02;;;;;;;;;;5030739;28;20100;-77
2022/01/18 06:50:11;;;;;;;34.72;15.13;;;;;;;;;;5030172;28;20109;-77
2022/01/18 06:52:37;;;;;;;28.27;14.65;;;;;;;;;;5029622;28;20048;-77
2022/01/18 06:55:03;;;;;;;39.30;16.27;;;;;;;;;;5030663;28;20029;-77
2022/01/18 06:57:28;;;;;;;37.92;16.15;;;;;;;;;;5038415;28;20522;-78
2022/01/18 06:59:54;;;;;;;36.70;15.98;;;;;;;;;;5011036;28;20022;-77
2022/01/18 07:02:19;;;;;;;37.88;17.10;;;;;;;;;;5025370;28;20402;-77
2022/01/18 07:04:44;;;;;;;39.90;17.17;;;;;;;;;;5016501;28;20472;-77
2022/01/18 07:07:10;;;;;;;33.20;15.35;;;;;;;;;;5021738;28;20254;-77
2022/01/18 07:09:35;;;;;;;35.60;16.35;;;;;;;;;;5027809;28;20128;-77
2022/01/18 07:12:00;;;;;;;36.33;18.35;;;;;;;;;;5013090;28;20483;-76
2022/01/18 07:14:26;;;;;;;34.33;15.05;;;;;;;;;;5012883;28;20056;-77
2022/01/18 07:16:52;;;;;;;28.85;14.60;;;;;;;;;;5025997;28;20029;-75
2022/01/18 07:19:17;;;;;;;31.63;14.95;;;;;;;;;;5018176;28;20446;-76
2022/01/18 07:21:43;;;;;;;28.52;14.57;;;;;;;;;;5025487;28;20034;-77
2022/01/18 07:24:28;;;;;;;33.90;17.27;;;;;;;;;;5023906;28;20025;-76
2022/01/18 07:26:53;;;;;;;39.42;20.60;;;;;;;;;;5025747;28;20082;-77
2022/01/18 07:29:19;;;;;;;39.25;17.95;;;;;;;;;;5018319;28;20025;-77
2022/01/18 07:31:44;;;;;;;35.00;17.63;;;;;;;;;;5025576;28;20250;-77
2022/01/18 07:34:13;;;;;;;39.40;18.25;;;;;;;;;;5025637;28;20043;-77
2022/01/18 07:36:38;;;;;;;35.10;15.80;;;;;;;;;;5025874;28;20498;-77
2022/01/18 07:39:04;;;;;;;30.58;15.25;;;;;;;;;;5019384;28;20033;-75
2022/01/18 07:41:29;;;;;;;32.42;16.10;;;;;;;;;;5025055;28;20035;-77
2022/01/18 07:43:55;;;;;;;32.97;16.13;;;;;;;;;;5026214;28;20031;-76
2022/01/18 07:46:20;;;;;;;32.00;15.48;;;;;;;;;;5024322;28;20533;-75
2022/01/18 07:48:45;;;;;;;34.72;17.30;;;;;;;;;;5015658;28;20061;-77
2022/01/18 07:51:13;;;;;;;27.77;15.82;;;;;;;;;;5010182;28;20026;-77
2022/01/18 07:53:38;;;;;;;29.08;14.77;;;;;;;;;;5014521;28;20476;-77
2022/01/18 07:56:04;;;;;;;26.80;14.57;;;;;;;;;;5030615;28;20109;-77
2022/01/18 07:58:29;;;;;;;35.08;16.40;;;;;;;;;;5032118;28;20475;-77
2022/01/18 08:00:57;;;;;;;37.40;18.58;;;;;;;;;;5030440;28;20026;-77
2022/01/18 08:03:22;;;;;;;40.00;20.40;;;;;;;;;;5030433;28;20075;-77
2022/01/18 08:05:49;;;;;;;36.50;18.60;;;;;;;;;;5033406;28;20029;-77
2022/01/18 08:08:15;;;;;;;48.85;25.13;;;;;;;;;;5028334;28;20032;-76
2022/01/18 08:10:40;;;;;;;36.45;19.67;;;;;;;;;;5029412;28;20103;-77
2022/01/18 08:13:05;;;;;;;34.40;17.02;;;;;;;;;;5029366;28;20416;-78
2022/01/18 08:15:38;;;;;;;32.75;16.02;;;;;;;;;;5029124;28;20495;-76
2022/01/18 08:18:06;;;;;;;35.65;17.08;;;;;;;;;;5028850;28;20071;-77
2022/01/18 08:20:32;;;;;;;37.08;16.40;;;;;;;;;;5032275;28;20022;-78
2022/01/18 08:22:57;;;;;;;35.35;15.63;;;;;;;;;;5029186;28;20064;-75
2022/01/18 08:25:23;;;;;;;37.38;16.45;;;;;;;;;;5030415;28;20033;-77
2022/01/18 08:27:49;;;;;;;43.53;25.00;;;;;;;;;;5028920;28;20021;-77
2022/01/18 08:30:19;;;;;;;32.70;16.05;;;;;;;;;;5025892;28;20037;-76
2022/01/18 08:32:46;;;;;;;36.75;17.30;;;;;;;;;;5010921;28;20026;-76
2022/01/18 08:35:11;;;;;;;38.50;16.02;;;;;;;;;;5029702;28;20116;-77
2022/01/18 08:37:37;;;;;;;33.22;16.67;;;;;;;;;;5029940;28;20515;-77
2022/01/18 08:40:04;;;;;;;37.25;16.02;;;;;;;;;;5030019;28;20025;-77
2022/01/18 08:42:30;;;;;;;33.75;16.17;;;;;;;;;;5028747;28;20287;-77
2022/01/18 08:44:55;;;;;;;34.92;15.48;;;;;;;;;;5028094;28;20464;-76
2022/01/18 08:47:24;;;;;;;35.47;16.88;;;;;;;;;;5037685;28;20487;-77
2022/01/18 08:49:49;;;;;;;37.05;16.10;;;;;;;;;;5028796;28;20495;-76
2022/01/18 08:52:15;;;;;;;37.15;16.98;;;;;;;;;;5027776;28;20079;-76
2022/01/18 08:54:42;;;;;;;37.72;17.70;;;;;;;;;;5029008;28;20055;-76
2022/01/18 08:57:08;;;;;;;42.90;18.08;;;;;;;;;;5026513;28;20021;-76
2022/01/18 08:59:35;;;;;;;35.42;17.35;;;;;;;;;;5028516;28;20105;-76
2022/01/18 09:02:02;;;;;;;39.03;17.48;;;;;;;;;;5026584;28;20029;-76
2022/01/18 09:04:28;;;;;;;32.33;15.90;;;;;;;;;;5027655;28;20494;-74
2022/01/18 09:06:53;;;;;;;30.67;15.25;;;;;;;;;;5028682;28;20137;-74
2022/01/18 09:09:19;;;;;;;34.42;15.85;;;;;;;;;;5028091;28;20025;-75
2022/01/18 09:11:45;;;;;;;33.33;15.20;;;;;;;;;;5028010;28;20033;-74
2022/01/18 09:14:12;;;;;;;29.23;14.57;;;;;;;;;;5028378;28;20036;-74
2022/01/18 09:16:38;;;;;;;33.90;14.52;;;;;;;;;;5027433;28;20051;-74
2022/01/18 09:19:03;;;;;;;34.72;16.02;;;;;;;;;;5025670;28;20395;-76
2022/01/18 09:21:31;;;;;;;35.53;15.90;;;;;;;;;;5029667;28;20021;-74
2022/01/18 09:23:57;;;;;;;28.02;14.48;;;;;;;;;;5026095;28;20083;-77
2022/01/18 09:26:22;;;;;;;28.35;14.75;;;;;;;;;;5018461;28;20147;-76
2022/01/18 09:28:47;;;;;;;29.15;14.70;;;;;;;;;;5026907;28;20029;-75
2022/01/18 09:31:13;;;;;;;29.73;14.20;;;;;;;;;;5025752;28;20022;-77
2022/01/18 09:33:38;;;;;;;31.63;14.70;;;;;;;;;;5024895;28;20022;-76
2022/01/18 09:36:04;;;;;;;32.85;16.00;;;;;;;;;;5006220;28;20101;-76
2022/01/18 09:38:30;;;;;;;28.35;14.82;;;;;;;;;;5026083;28;20033;-76
2022/01/18 09:40:56;;;;;;;28.88;14.95;;;;;;;;;;5027098;28;20064;-76
2022/01/18 09:43:22;;;;;;;35.70;13.82;;;;;;;;;;5025209;28;20033;-76
2022/01/18 09:45:47;;;;;;;29.80;14.20;;;;;;;;;;5028695;28;20067;-77
2022/01/18 09:48:14;;;;;;;31.50;14.40;;;;;;;;;;5027939;28;20028;-77
2022/01/18 09:50:41;;;;;;;31.15;14.65;;;;;;;;;;5027312;28;20029;-76
2022/01/18 09:53:09;;;;;;;30.23;14.27;;;;;;;;;;5027446;28;20017;-76
2022/01/18 09:55:35;;;;;;;30.63;14.20;;;;;;;;;;5026948;28;20029;-77
2022/01/18 09:58:03;;;;;;;34.95;14.55;;;;;;;;;;5026883;28;20360;-76
2022/01/18 10:00:30;;;;;;;33.80;15.32;;;;;;;;;;5027967;28;20025;-76
2022/01/18 10:02:56;;;;;;;30.05;14.57;;;;;;;;;;5016794;28;20030;-76
2022/01/18 10:05:25;;;;;;;34.38;14.93;;;;;;;;;;5021712;28;20078;-76
2022/01/18 10:07:58;;;;;;;38.10;15.60;;;;;;;;;;5026852;28;20083;-76
2022/01/18 10:10:38;;;;;;;30.45;14.77;;;;;;;;;;5026388;28;20033;-76
2022/01/18 10:13:04;;;;;;;31.90;14.80;;;;;;;;;;5027265;28;20269;-77
2022/01/18 10:15:30;;;;;;;34.05;15.60;;;;;;;;;;5026317;28;20032;-76
2022/01/18 10:18:07;;;;;;;33.97;15.27;;;;;;;;;;5027033;28;20029;-76
2022/01/18 10:20:46;;;;;;;31.90;14.38;;;;;;;;;;5027284;28;20275;-76
2022/01/18 10:23:20;;;;;;;32.83;14.68;;;;;;;;;;5023363;28;20038;-76
2022/01/18 10:25:45;;;;;;;32.13;14.82;;;;;;;;;;5020150;28;20387;-76
2022/01/18 10:28:33;;;;;;;31.95;15.55;;;;;;;;;;5016961;28;20039;-76
2022/01/18 10:31:06;;;;;;;31.63;15.05;;;;;;;;;;5016319;28;20113;-76
2022/01/18 10:33:38;;;;;;;;;;;;;;;;;;5014637;28;20025;-76
2022/01/18 10:36:04;;;;;;;28.80;14.55;;;;;;;;;;5016536;28;19913;-76
2022/01/18 10:38:30;;;;;;;26.65;13.85;;;;;;;;;;5026561;28;20033;-76
2022/01/18 10:40:56;;;;;;;34.92;14.93;;;;;;;;;;5027580;28;20025;-76
2022/01/18 10:43:30;;;;;;;28.05;14.23;;;;;;;;;;5025008;28;20037;-77
2022/01/18 10:46:15;;;;;;;29.17;15.05;;;;;;;;;;5026075;28;20553;-76
2022/01/18 10:48:48;;;;;;;30.33;14.30;;;;;;;;;;5026711;28;20095;-77
2022/01/18 10:51:30;;;;;;;29.77;14.10;;;;;;;;;;5027097;28;20434;-77
2022/01/18 10:54:02;;;;;;;28.17;13.75;;;;;;;;;;5028481;28;20018;-77
2022/01/18 10:56:40;;;;;;;25.63;12.95;;;;;;;;;;5030180;28;20042;-77
2022/01/18 10:59:07;;;;;;;23.15;11.73;;;;;;;;;;5027855;28;20022;-77
2022/01/18 11:01:32;;;;;;;24.25;12.10;;;;;;;;;;5007597;28;20076;-77
2022/01/18 11:04:14;;;;;;;22.30;12.25;;;;;;;;;;5017536;28;20383;-77
2022/01/18 11:06:43;;;;;;;25.92;13.05;;;;;;;;;;5025939;28;20483;-78
2022/01/18 11:09:11;;;;;;;23.75;13.00;;;;;;;;;;5027523;28;20174;-79
2022/01/18 11:11:44;;;;;;;27.27;13.98;;;;;;;;;;5026986;28;20491;-77
2022/01/18 11:14:11;;;;;;;27.13;13.02;;;;;;;;;;5028070;28;20091;-77
2022/01/18 11:16:41;;;;;;;20.75;12.82;;;;;;;;;;5029080;28;20033;-78
2022/01/18 11:19:17;;;;;;;24.35;12.90;;;;;;;;;;5029445;28;20029;-77
2022/01/18 11:21:44;;;;;;;30.00;15.18;;;;;;;;;;5030009;28;20060;-77
2022/01/18 11:24:09;;;;;;;28.63;14.60;;;;;;;;;;5029100;28;20021;-77
2022/01/18 11:26:38;;;;;;;28.35;13.48;;;;;;;;;;5030503;28;20033;-77
2022/01/18 11:29:04;;;;;;;28.48;13.90;;;;;;;;;;5029709;28;20036;-78
2022/01/18 11:31:29;;;;;;;29.50;13.82;;;;;;;;;;5023168;28;20029;-77
2022/01/18 11:33:59;;;;;;;27.98;13.65;;;;;;;;;;5010177;28;20022;-77
2022/01/18 11:36:30;;;;;;;26.13;12.88;;;;;;;;;;5010218;28;20022;-77
2022/01/18 11:39:00;;;;;;;30.42;15.23;;;;;;;;;;5014701;28;20550;-77
2022/01/18 11:41:28;;;;;;;27.98;15.27;;;;;;;;;;5017193;28;20034;-77
2022/01/18 11:43:56;;;;;;;20.90;11.23;;;;;;;;;;5024529;28;20034;-77
2022/01/18 11:46:30;;;;;;;21.77;11.20;;;;;;;;;;5029475;28;20040;-77
2022/01/18 11:49:06;;;;;;;22.90;11.50;;;;;;;;;;5028760;28;20468;-77
2022/01/18 11:51:59;;;;;;;21.58;10.85;;;;;;;;;;5029496;28;20068;-77
2022/01/18 11:54:56;;;;;;;;;;;;;;;;;;5029651;28;20075;-78
2022/01/18 11:57:21;;;;;;;16.52;9.52;;;;;;;;;;5029644;28;20383;-76
2022/01/18 11:59:48;;;;;;;16.10;9.70;;;;;;;;;;5029093;28;20036;-77
2022/01/18 12:02:25;;;;;;;22.17;10.90;;;;;;;;;;5025419;28;20057;-77
2022/01/18 12:04:54;;;;;;;20.63;10.27;;;;;;;;;;5017614;28;20545;-77
2022/01/18 12:07:36;;;;;;;19.27;11.05;;;;;;;;;;5008854;28;20087;-77
2022/01/18 12:10:29;;;;;;;20.73;9.73;;;;;;;;;;5010829;28;20022;-77
2022/01/18 12:12:56;;;;;;;17.08;9.00;;;;;;;;;;5011910;28;20464;-77
2022/01/18 12:15:22;;;;;;;18.15;9.63;;;;;;;;;;5025051;28;20061;-77
2022/01/18 12:17:50;;;;;;;15.57;9.02;;;;;;;;;;5028172;28;20025;-77
2022/01/18 12:20:34;;;;;;;20.05;9.32;;;;;;;;;;5028213;28;20101;-77
2022/01/18 12:23:10;;;;;;;19.70;9.73;;;;;;;;;;5028681;28;20403;-77
2022/01/18 12:25:51;;;;;;;15.30;8.98;;;;;;;;;;5028189;28;20037;-77
2022/01/18 12:34:43;;;;;;;22.73;10.75;;;;;;;;;;4998882;28;20040;-77
2022/01/18 12:37:11;;;;;;;20.75;10.05;;;;;;;;;;5031082;28;20030;-77
2022/01/18 12:39:52;;;;;;;14.23;8.63;;;;;;;;;;5032611;28;20029;-77
2022/01/18 12:45:01;;;;;;;17.55;8.70;;;;;;;;;;5032479;28;20071;-77
2022/01/18 12:47:27;;;;;;;17.75;9.13;;;;;;;;;;5032201;28;20052;-75
2022/01/18 12:49:53;;;;;;;18.38;8.32;;;;;;;;;;5031626;28;20558;-76
2022/01/18 12:52:19;;;;;;;18.70;7.72;;;;;;;;;;5031017;28;20029;-73
2022/01/18 12:54:48;;;;;;;18.17;8.68;;;;;;;;;;5032406;28;20029;-75
2022/01/18 12:57:20;;;;;;;15.73;8.75;;;;;;;;;;5032240;28;20030;-76
2022/01/18 13:00:04;;;;;;;;;;;;;;;;;;5032251;28;20107;-74
2022/01/18 13:02:29;;;;;;;;;;;;;;;;;;5030759;28;20378;-74
2022/01/18 13:05:04;;;;;;;15.63;7.85;;;;;;;;;;5031565;28;19909;-74
2022/01/18 13:07:29;;;;;;;16.52;7.93;;;;;;;;;;5029129;28;20080;-76
2022/01/18 13:10:06;;;;;;;14.07;7.70;;;;;;;;;;5012486;28;20065;-74
2022/01/18 13:12:35;;;;;;;15.85;9.15;;;;;;;;;;5012618;28;20049;-75
2022/01/18 13:15:04;;;;;;;18.10;9.32;;;;;;;;;;5010897;28;20030;-77
2022/01/18 13:23:41;;;;;;;17.27;8.30;;;;;;;;;;5030255;28;20067;-76
2022/01/18 13:26:06;;;;;;;23.88;10.20;;;;;;;;;;5012096;28;20034;-74
2022/01/18 13:28:36;;;;;;;21.60;12.93;;;;;;;;;;5011986;28;20041;-75
2022/01/18 13:31:16;;;;;;;22.42;11.10;;;;;;;;;;5012088;28;20029;-77
2022/01/18 13:33:56;;;;;;;22.30;9.73;;;;;;;;;;5018301;28;20033;-75
2022/01/18 13:36:23;;;;;;;17.90;9.23;;;;;;;;;;5031086;28;20037;-77
2022/01/18 13:38:50;;;;;;;18.90;8.10;;;;;;;;;;5031275;28;20083;-74
2022/01/18 13:41:17;;;;;;;11.50;7.10;;;;;;;;;;5024944;28;20423;-76
2022/01/18 13:43:43;;;;;;;15.23;8.38;;;;;;;;;;5016315;28;20094;-76
2022/01/18 13:46:09;;;;;;;14.80;7.20;;;;;;;;;;5031639;28;20468;-77
2022/01/18 13:48:35;;;;;;;17.25;7.38;;;;;;;;;;5031516;28;20029;-78
2022/01/18 13:51:19;;;;;;;16.08;6.82;;;;;;;;;;5031733;28;20026;-77
2022/01/18 13:53:44;;;;;;;16.77;7.10;;;;;;;;;;5031416;28;20022;-77
2022/01/18 13:56:19;;;;;;;17.73;9.27;;;;;;;;;;5031398;28;20191;-77
2022/01/18 13:58:58;;;;;;;18.45;9.18;;;;;;;;;;5019246;28;20112;-76
2022/01/18 14:01:32;;;;;;;17.52;10.70;;;;;;;;;;5031164;28;20029;-76
2022/01/18 14:04:00;;;;;;;17.35;12.50;;;;;;;;;;5030539;28;20064;-77
2022/01/18 14:06:37;;;;;;;18.50;11.77;;;;;;;;;;5029591;28;20040;-77
2022/01/18 14:09:03;;;;;;;13.13;8.63;;;;;;;;;;5031091;28;20033;-77
2022/01/18 14:11:32;;;;;;;12.80;6.88;;;;;;;;;;5031251;28;20026;-76
2022/01/18 14:13:58;;;;;;;10.95;6.72;;;;;;;;;;5030267;28;20021;-76
2022/01/18 14:16:33;;;;;;;9.98;6.20;;;;;;;;;;5017592;28;20041;-79
2022/01/18 14:19:00;;;;;;;10.98;6.30;;;;;;;;;;5013822;28;20025;-76
2022/01/18 14:21:30;;;;;;;13.95;6.57;;;;;;;;;;5019205;28;20026;-74
2022/01/18 14:24:16;;;;;;;11.18;6.13;;;;;;;;;;5009262;28;20534;-76
2022/01/18 14:26:54;;;;;;;10.25;5.88;;;;;;;;;;5015272;28;20815;-76
2022/01/18 14:29:22;;;;;;;10.73;5.50;;;;;;;;;;5026955;28;20021;-76
2022/01/18 14:32:14;;;;;;;11.85;6.10;;;;;;;;;;5010671;28;20029;-74
2022/01/18 14:34:43;;;;;;;9.73;5.93;;;;;;;;;;5026161;28;20036;-74
2022/01/18 14:37:10;;;;;;;11.68;6.40;;;;;;;;;;5030467;28;20021;-76
2022/01/18 14:40:02;;;;;;;11.30;5.63;;;;;;;;;;5030572;28;20379;-76
2022/01/18 14:42:34;;;;;;;8.35;5.35;;;;;;;;;;5029955;28;20109;-75
2022/01/18 14:47:25;;;;;;;11.10;6.15;;;;;;;;;;5029496;28;20184;-73
2022/01/18 14:49:51;;;;;;;11.25;5.65;;;;;;;;;;5030469;28;20025;-76
2022/01/18 14:52:16;;;;;;;7.82;5.15;;;;;;;;;;5029442;28;20108;-75
2022/01/18 14:54:41;;;;;;;8.48;4.78;;;;;;;;;;5029104;28;20124;-76
2022/01/18 14:57:08;;;;;;;9.07;4.00;;;;;;;;;;5029219;28;20039;-75
2022/01/18 14:59:33;;;;;;;8.45;4.75;;;;;;;;;;5029940;28;20048;-75
2022/01/18 15:01:59;;;;;;;7.32;4.20;;;;;;;;;;5027541;28;20611;-74
2022/01/18 15:04:25;;;;;;;7.88;4.18;;;;;;;;;;5029531;28;20029;-76
2022/01/18 15:06:51;;;;;;;7.45;3.50;;;;;;;;;;5029498;28;20060;-75
2022/01/18 15:09:17;;;;;;;5.75;3.97;;;;;;;;;;5029805;28;20037;-75
2022/01/18 15:11:42;;;;;;;7.95;3.75;;;;;;;;;;5029181;28;20029;-76
2022/01/18 15:14:08;;;;;;;6.85;4.72;;;;;;;;;;5029453;28;20053;-75
2022/01/18 15:16:33;;;;;;;6.05;4.15;;;;;;;;;;5029186;28;20040;-76
2022/01/18 15:18:58;;;;;;;6.95;4.13;;;;;;;;;;5029458;28;20467;-76
2022/01/18 15:21:25;;;;;;;9.77;4.05;;;;;;;;;;5029318;28;20484;-76
2022/01/18 15:23:50;;;;;;;6.07;3.45;;;;;;;;;;5029262;28;20033;-75
2022/01/18 15:26:16;;;;;;;9.48;6.15;;;;;;;;;;5029296;28;20033;-76
2022/01/18 15:28:41;;;;;;;11.75;5.38;;;;;;;;;;5029290;28;20108;-76
2022/01/18 15:31:06;;;;;;;10.10;5.70;;;;;;;;;;5028085;28;20048;-76
2022/01/18 15:33:31;;;;;;;9.57;5.82;;;;;;;;;;5018922;28;20376;-76
2022/01/18 15:35:57;;;;;;;11.52;5.57;;;;;;;;;;5017435;28;20045;-76
2022/01/18 15:38:23;;;;;;;11.88;6.88;;;;;;;;;;5018076;28;20112;-78
2022/01/18 15:40:48;;;;;;;11.40;6.30;;;;;;;;;;5019149;28;20025;-76
2022/01/18 15:43:16;;;;;;;7.30;3.90;;;;;;;;;;5019474;28;20022;-77
2022/01/18 15:45:42;;;;;;;7.40;3.65;;;;;;;;;;5017144;28;20084;-77
2022/01/18 15:48:07;;;;;;;7.32;3.80;;;;;;;;;;5016692;28;20030;-75
2022/01/18 15:50:33;;;;;;;8.30;3.50;;;;;;;;;;5028131;28;20052;-75